createdAt,value
2023-01-28T00:00:10.465Z,2.70
2023-01-28T00:02:41.212Z,2.77
2023-01-28T00:05:12.223Z,3.63
2023-01-28T00:07:41.118Z,2.93
2023-01-28T00:10:12.878Z,2.80
2023-01-28T00:12:41.523Z,2.67
2023-01-28T00:15:12.039Z,2.47
2023-01-28T00:17:42.307Z,2.73
2023-01-28T00:20:12.762Z,2.80
2023-01-28T00:22:41.565Z,2.70
2023-01-28T00:25:10.496Z,2.63
2023-01-28T00:27:39.092Z,2.70
2023-01-28T00:30:09.675Z,2.30
2023-01-28T00:32:38.319Z,2.40
2023-01-28T00:35:09.789Z,2.70
2023-01-28T00:37:38.359Z,2.30
2023-01-28T00:40:10.115Z,2.60
2023-01-28T00:42:38.737Z,2.50
2023-01-28T00:45:08.741Z,2.37
2023-01-28T00:47:38.154Z,2.33
2023-01-28T00:50:09.644Z,2.13
2023-01-28T00:52:39.273Z,2.43
2023-01-28T00:55:09.595Z,2.50
2023-01-28T00:57:38.343Z,2.23
2023-01-28T01:00:09.084Z,2.00
2023-01-28T01:02:38.451Z,2.60
2023-01-28T01:05:10.071Z,2.00
2023-01-28T01:07:42.729Z,2.30
2023-01-28T01:10:13.874Z,2.10
2023-01-28T01:12:42.998Z,1.87
2023-01-28T01:15:12.924Z,2.20
2023-01-28T01:17:46.072Z,2.20
2023-01-28T01:20:19.000Z,2.37
2023-01-28T01:22:48.064Z,2.33
2023-01-28T01:25:18.597Z,2.13
2023-01-28T01:27:50.101Z,2.30
2023-01-28T01:30:20.612Z,2.40
2023-01-28T01:32:49.851Z,2.30
2023-01-28T02:23:55.220Z,2.27
2023-01-28T02:27:05.218Z,2.47
2023-01-28T02:29:43.164Z,2.20
2023-01-28T02:32:19.234Z,2.00
2023-01-28T02:34:52.782Z,2.40
2023-01-28T02:37:27.618Z,2.30
2023-01-28T02:40:01.402Z,2.10
2023-01-28T02:42:36.293Z,2.37
2023-01-28T02:45:17.819Z,2.40
2023-01-28T02:48:00.658Z,2.20
2023-01-28T02:50:41.355Z,2.63
2023-01-28T02:53:39.152Z,2.00
2023-01-28T02:56:20.925Z,2.00
2023-01-28T02:58:57.656Z,2.60
2023-01-28T03:01:36.970Z,2.20
2023-01-28T03:04:15.209Z,2.20
2023-01-28T03:06:57.090Z,2.13
2023-01-28T03:09:27.301Z,2.40
2023-01-28T03:12:18.161Z,2.30
2023-01-28T03:15:08.910Z,2.17
2023-01-28T03:18:02.542Z,2.10
2023-01-28T03:20:56.265Z,2.20
2023-01-28T03:23:51.768Z,2.20
2023-01-28T03:26:42.109Z,2.30
2023-01-28T03:29:31.553Z,1.90
2023-01-28T03:32:20.458Z,2.20
2023-01-28T03:35:08.556Z,2.20
2023-01-28T03:37:37.384Z,2.30
2023-01-28T03:40:15.898Z,1.93
2023-01-28T03:42:45.642Z,1.97
2023-01-28T03:45:30.620Z,2.13
2023-01-28T03:47:59.341Z,2.00
2023-01-28T03:50:30.686Z,2.10
2023-01-28T03:53:14.948Z,1.90
2023-01-28T03:55:52.127Z,2.20
2023-01-28T03:58:23.153Z,2.00
2023-01-28T04:00:52.830Z,1.90
2023-01-28T04:03:23.344Z,2.20
2023-01-28T04:06:03.185Z,2.00
2023-01-28T04:08:59.463Z,2.07
2023-01-28T04:11:41.705Z,2.10
2023-01-28T04:14:12.189Z,2.30
2023-01-28T04:16:49.145Z,2.00
2023-01-28T04:19:18.353Z,2.20
2023-01-28T04:21:49.224Z,2.20
2023-01-28T04:24:18.151Z,2.07
2023-01-28T04:26:46.984Z,1.87
2023-01-28T04:29:17.280Z,1.90
2023-01-28T04:31:46.118Z,2.10
2023-01-28T04:34:23.404Z,1.97
2023-01-28T04:36:59.053Z,2.17
2023-01-28T04:39:50.614Z,2.40
2023-01-28T04:42:22.913Z,2.17
2023-01-28T04:45:17.920Z,2.37
2023-01-28T04:48:18.960Z,2.10
2023-01-28T04:51:08.684Z,2.33
2023-01-28T04:53:44.586Z,1.90
2023-01-28T04:56:26.615Z,2.00
2023-01-28T04:58:55.687Z,1.97
2023-01-28T05:01:25.781Z,2.30
2023-01-28T05:03:55.491Z,2.17
2023-01-28T05:06:27.378Z,2.33
2023-01-28T05:08:59.972Z,2.20
2023-01-28T05:11:29.154Z,2.30
2023-01-28T05:14:02.517Z,2.00
2023-01-28T05:16:37.106Z,2.20
2023-01-28T05:19:06.145Z,2.40
2023-01-28T05:21:38.358Z,2.10
2023-01-28T05:24:14.570Z,2.10
2023-01-28T05:26:45.941Z,2.27
2023-01-28T05:29:14.705Z,2.40
2023-01-28T05:31:43.390Z,2.30
2023-01-28T05:34:12.141Z,2.30
2023-01-28T05:36:41.240Z,2.43
2023-01-28T05:39:27.169Z,2.10
2023-01-28T05:41:55.852Z,2.50
2023-01-28T05:44:24.657Z,2.27
2023-01-28T05:47:28.671Z,2.40
2023-01-28T05:50:04.919Z,2.40
2023-01-28T05:52:45.384Z,2.40
2023-01-28T05:55:24.662Z,2.20
2023-01-28T05:57:53.353Z,2.10
2023-01-28T06:00:25.242Z,2.10
2023-01-28T06:02:54.255Z,2.50
2023-01-28T06:05:24.128Z,2.23
2023-01-28T06:07:52.839Z,2.13
2023-01-28T06:10:23.710Z,2.30
2023-01-28T06:12:52.501Z,2.50
2023-01-28T06:15:39.584Z,2.40
2023-01-28T06:18:41.345Z,2.57
2023-01-28T06:21:10.979Z,2.23
2023-01-28T06:23:40.098Z,2.63
2023-01-28T06:26:12.065Z,2.43
2023-01-28T06:28:43.393Z,2.53
2023-01-28T06:31:12.158Z,2.33
2023-01-28T06:33:40.897Z,2.53
2023-01-28T06:36:10.377Z,2.33
2023-01-28T06:38:38.969Z,2.77
2023-01-28T06:41:07.620Z,2.77
2023-01-28T06:43:37.810Z,2.40
2023-01-28T06:46:07.291Z,2.63
2023-01-28T06:48:36.030Z,2.80
2023-01-28T06:51:04.811Z,2.77
2023-01-28T06:53:33.449Z,3.00
2023-01-28T06:56:02.125Z,3.00
2023-01-28T06:58:30.828Z,2.30
2023-01-28T07:01:00.839Z,2.90
2023-01-28T07:03:29.563Z,2.57
2023-01-28T07:05:58.257Z,2.70
2023-01-28T07:08:26.896Z,2.50
2023-01-28T07:10:55.482Z,2.50
2023-01-28T07:13:24.105Z,2.50
2023-01-28T07:15:52.729Z,2.77
2023-01-28T07:18:22.720Z,2.60
2023-01-28T07:20:51.282Z,2.33
2023-01-28T07:23:19.952Z,2.60
2023-01-28T07:25:48.533Z,2.60
2023-01-28T07:28:21.484Z,2.60
2023-01-28T07:30:53.497Z,3.57
2023-01-28T07:33:23.901Z,2.90
2023-01-28T07:35:52.567Z,3.43
2023-01-28T07:38:21.229Z,3.10
2023-01-28T07:40:50.306Z,2.90
2023-01-28T07:43:19.012Z,2.67
2023-01-28T07:45:48.702Z,3.00
2023-01-28T07:48:17.509Z,3.00
2023-01-28T07:50:49.594Z,2.90
2023-01-28T07:53:18.472Z,2.97
2023-01-28T07:55:47.367Z,2.87
2023-01-28T07:58:15.996Z,2.90
2023-01-28T08:00:44.653Z,3.00
2023-01-28T08:03:17.433Z,3.17
2023-01-28T08:05:50.023Z,3.10
2023-01-28T08:08:19.461Z,3.07
2023-01-28T08:10:48.481Z,3.13
2023-01-28T08:13:18.873Z,3.10
2023-01-28T08:15:48.186Z,3.20
2023-01-28T08:18:18.281Z,3.20
2023-01-28T08:20:48.303Z,3.10
2023-01-28T08:23:21.962Z,3.13
2023-01-28T08:25:51.782Z,3.00
2023-01-28T08:28:21.293Z,3.40
2023-01-28T08:30:50.052Z,3.27
2023-01-28T08:33:21.257Z,3.17
2023-01-28T08:35:51.241Z,3.20
2023-01-28T08:38:20.477Z,3.20
2023-01-28T08:40:51.041Z,2.90
2023-01-28T08:43:19.881Z,2.90
2023-01-28T08:45:48.546Z,3.07
2023-01-28T08:48:19.794Z,3.33
2023-01-28T08:50:50.861Z,3.20
2023-01-28T08:53:21.690Z,3.20
2023-01-28T08:55:50.284Z,3.00
2023-01-28T08:58:19.927Z,2.90
2023-01-28T09:00:49.394Z,3.33
2023-01-28T09:03:18.915Z,3.07
2023-01-28T09:05:49.644Z,2.57
2023-01-28T09:08:19.627Z,3.10
2023-01-28T09:10:48.329Z,3.13
2023-01-28T09:13:17.702Z,2.70
2023-01-28T09:15:46.377Z,3.20
2023-01-28T09:18:15.030Z,3.13
2023-01-28T09:20:43.806Z,3.17
2023-01-28T09:23:14.134Z,3.10
2023-01-28T09:25:44.149Z,2.83
2023-01-28T09:28:12.770Z,2.80
2023-01-28T09:30:41.486Z,3.33
2023-01-28T09:33:10.301Z,2.80
2023-01-28T09:35:38.885Z,2.80
2023-01-28T09:38:07.515Z,3.00
2023-01-28T09:40:39.558Z,3.27
2023-01-28T09:43:41.057Z,2.80
2023-01-28T09:46:15.460Z,2.97
2023-01-28T09:48:49.251Z,3.30
2023-01-28T09:51:34.025Z,3.17
2023-01-28T09:54:11.454Z,2.70
2023-01-28T09:56:46.140Z,2.60
2023-01-28T09:59:21.131Z,2.70
2023-01-28T10:01:57.342Z,2.97
2023-01-28T10:04:57.775Z,2.90
2023-01-28T10:07:37.689Z,2.90
2023-01-28T10:10:15.192Z,2.60
2023-01-28T10:13:22.163Z,2.80
2023-01-28T10:16:24.599Z,3.07
2023-01-28T10:18:59.873Z,2.67
2023-01-28T10:21:35.569Z,2.90
2023-01-28T10:24:11.565Z,3.67
2023-01-28T10:26:42.674Z,2.87
2023-01-28T10:29:17.094Z,2.67
2023-01-28T10:31:54.519Z,2.80
2023-01-28T10:34:24.577Z,2.73
2023-01-28T10:36:53.894Z,3.00
2023-01-28T10:39:26.086Z,2.70
2023-01-28T10:41:58.966Z,3.07
2023-01-28T10:44:35.926Z,2.83
2023-01-28T10:47:16.271Z,2.90
2023-01-28T10:49:51.013Z,3.00
2023-01-28T10:52:19.871Z,2.67
2023-01-28T10:54:48.528Z,2.50
2023-01-28T10:57:20.371Z,2.60
2023-01-28T10:59:50.687Z,2.80
2023-01-28T11:02:32.220Z,2.33
2023-01-28T11:05:15.507Z,2.80
2023-01-28T11:07:44.241Z,2.63
2023-01-28T11:10:32.345Z,2.73
2023-01-28T11:13:03.042Z,2.60
2023-01-28T11:15:32.353Z,2.50
2023-01-28T11:18:09.209Z,2.50
2023-01-28T11:20:42.773Z,2.47
2023-01-28T11:23:21.218Z,2.33
2023-01-28T11:25:50.182Z,2.50
2023-01-28T11:28:21.626Z,2.43
2023-01-28T11:30:54.628Z,2.60
2023-01-28T11:33:37.914Z,2.47
2023-01-28T11:36:13.239Z,2.50
2023-01-28T11:38:53.770Z,2.20
2023-01-28T11:41:29.416Z,2.80
2023-01-28T11:43:59.837Z,2.70
2023-01-28T11:47:02.417Z,2.50
2023-01-28T11:49:48.553Z,2.30
2023-01-28T11:52:26.472Z,2.40
2023-01-28T11:55:17.373Z,2.43
2023-01-28T11:57:58.133Z,2.20
2023-01-28T12:00:37.044Z,2.50
2023-01-28T12:03:27.629Z,2.10
2023-01-28T12:06:11.719Z,2.47
2023-01-28T12:08:49.488Z,2.60
2023-01-28T12:11:45.663Z,2.23
2023-01-28T12:14:25.359Z,2.30
2023-01-28T12:17:06.424Z,2.17
2023-01-28T12:19:50.826Z,2.20
2023-01-28T12:22:44.985Z,2.23
2023-01-28T12:25:41.099Z,2.33
2023-01-28T12:28:20.849Z,2.13
2023-01-28T12:31:08.794Z,2.17
2023-01-28T12:33:59.066Z,2.20
2023-01-28T12:36:47.348Z,2.20
2023-01-28T12:39:29.385Z,2.50
2023-01-28T12:42:11.559Z,2.30
2023-01-28T12:44:47.839Z,2.37
2023-01-28T12:47:23.435Z,2.00
2023-01-28T12:49:57.267Z,2.20
2023-01-28T12:52:32.090Z,2.53
2023-01-28T12:55:14.685Z,2.10
2023-01-28T12:57:43.318Z,2.30
2023-01-28T13:00:25.305Z,2.10
2023-01-28T13:03:10.794Z,2.37
2023-01-28T13:05:45.851Z,2.00
2023-01-28T13:08:21.907Z,2.13
2023-01-28T13:10:53.035Z,2.40
2023-01-28T13:13:30.038Z,2.40
2023-01-28T13:15:59.720Z,2.07
2023-01-28T13:18:45.318Z,2.50
2023-01-28T13:21:19.178Z,2.17
2023-01-28T13:23:50.132Z,2.57
2023-01-28T13:26:39.277Z,2.67
2023-01-28T13:29:33.301Z,2.77
2023-01-28T13:32:04.882Z,2.37
2023-01-28T13:34:37.444Z,2.63
2023-01-28T13:37:19.778Z,2.40
2023-01-28T13:39:51.154Z,2.43
2023-01-28T13:42:27.384Z,2.40
2023-01-28T13:44:56.852Z,2.37
2023-01-28T13:47:31.786Z,2.47
2023-01-28T13:50:04.895Z,2.60
2023-01-28T13:52:38.303Z,2.57
2023-01-28T13:55:33.228Z,2.60
2023-01-28T13:59:09.889Z,2.50
2023-01-28T14:02:22.015Z,2.60
2023-01-28T14:05:22.210Z,2.80
2023-01-28T14:08:38.889Z,2.90
2023-01-28T14:11:38.607Z,2.50
2023-01-28T14:14:33.547Z,2.70
2023-01-28T14:17:07.275Z,2.27
2023-01-28T14:19:38.637Z,2.07
2023-01-28T14:22:10.930Z,2.50
2023-01-28T14:24:41.080Z,2.20
2023-01-28T14:27:17.597Z,2.70
2023-01-28T14:30:12.065Z,2.27
2023-01-28T14:32:48.187Z,2.27
2023-01-28T14:35:21.585Z,2.57
2023-01-28T14:37:50.374Z,2.50
2023-01-28T14:40:20.198Z,2.37
2023-01-28T14:42:52.191Z,2.83
2023-01-28T14:46:11.333Z,2.50
2023-01-28T14:48:47.157Z,2.57
2023-01-28T14:51:40.140Z,2.73
2023-01-28T14:54:36.533Z,2.67
2023-01-28T14:57:39.605Z,2.40
2023-01-28T15:00:21.850Z,2.40
2023-01-28T15:02:51.954Z,2.47
2023-01-28T15:05:24.221Z,2.57
2023-01-28T15:07:53.436Z,2.83
2023-01-28T15:10:29.246Z,3.27
2023-01-28T15:13:05.070Z,2.60
2023-01-28T15:15:36.905Z,2.53
2023-01-28T15:18:15.334Z,2.50
2023-01-28T15:20:46.348Z,2.67
2023-01-28T15:23:18.569Z,2.47
2023-01-28T15:25:47.387Z,2.40
2023-01-28T15:28:27.328Z,2.07
2023-01-28T15:30:56.074Z,2.23
2023-01-28T15:33:26.385Z,2.10
2023-01-28T15:35:58.125Z,2.50
2023-01-28T15:38:30.313Z,2.37
2023-01-28T15:41:01.720Z,2.37
2023-01-28T15:43:33.133Z,2.23
2023-01-28T15:46:02.481Z,2.37
2023-01-28T15:48:35.131Z,2.30
2023-01-28T15:51:06.997Z,2.00
2023-01-28T15:53:38.882Z,2.27
2023-01-28T15:56:11.105Z,2.40
2023-01-28T15:58:41.784Z,2.50
2023-01-28T16:01:20.425Z,2.97
2023-01-28T16:04:03.585Z,2.70
2023-01-28T16:06:35.929Z,2.30
2023-01-28T16:09:07.592Z,2.63
2023-01-28T16:11:44.804Z,2.50
2023-01-28T16:14:24.935Z,2.37
2023-01-28T16:16:55.816Z,2.60
2023-01-28T16:19:39.457Z,2.60
2023-01-28T16:22:09.243Z,2.77
2023-01-28T16:24:38.027Z,2.90
2023-01-28T16:27:19.430Z,3.00
2023-01-28T16:29:48.086Z,2.63
2023-01-28T16:32:32.903Z,2.70
2023-01-28T16:35:04.685Z,2.73
2023-01-28T16:37:33.374Z,3.00
2023-01-28T16:40:02.575Z,2.37
2023-01-28T16:42:33.522Z,2.70
2023-01-28T16:45:02.105Z,2.80
2023-01-28T16:47:31.143Z,2.50
2023-01-28T16:49:59.992Z,2.70
2023-01-28T16:52:30.178Z,2.90
2023-01-28T16:54:58.798Z,3.03
2023-01-28T16:57:27.428Z,3.03
2023-01-28T16:59:56.355Z,3.43
2023-01-28T17:02:25.119Z,2.60
2023-01-28T17:04:53.905Z,3.30
2023-01-28T17:07:22.589Z,3.10
2023-01-28T17:09:52.613Z,2.93
2023-01-28T17:12:21.173Z,2.90
2023-01-28T17:14:49.793Z,2.30
2023-01-28T17:17:18.389Z,2.30
2023-01-28T17:19:47.034Z,2.03
2023-01-28T17:22:15.729Z,2.80
2023-01-28T17:24:44.439Z,2.50
2023-01-28T17:27:14.448Z,2.60
2023-01-28T17:29:43.088Z,2.50
2023-01-28T17:32:11.849Z,2.50
2023-01-28T17:34:40.541Z,2.40
2023-01-28T17:37:09.148Z,2.70
2023-01-28T17:39:37.784Z,2.10
2023-01-28T17:42:06.637Z,2.53
2023-01-28T17:44:36.679Z,2.47
2023-01-28T17:47:05.345Z,2.30
2023-01-28T17:49:33.952Z,2.20
2023-01-28T17:52:02.580Z,2.03
2023-01-28T17:54:31.667Z,1.83
2023-01-28T17:57:00.392Z,2.40
2023-01-28T17:59:29.209Z,2.70
2023-01-28T18:01:59.240Z,2.33
2023-01-28T18:04:27.959Z,2.23
2023-01-28T18:06:56.632Z,2.30
2023-01-28T18:09:25.229Z,2.03
2023-01-28T18:11:53.865Z,2.30
2023-01-28T18:14:22.458Z,2.10
2023-01-28T18:16:51.110Z,2.20
2023-01-28T18:19:21.101Z,2.50
2023-01-28T18:21:53.357Z,2.57
2023-01-28T18:24:23.828Z,2.87
2023-01-28T18:26:55.425Z,2.77
2023-01-28T18:29:24.326Z,3.37
2023-01-28T18:31:55.435Z,3.30
2023-01-28T18:34:27.537Z,2.50
2023-01-28T18:36:58.043Z,2.60
2023-01-28T18:39:31.114Z,2.33
2023-01-28T18:42:00.473Z,2.30
2023-01-28T18:44:32.072Z,2.93
2023-01-28T18:47:00.959Z,2.80
2023-01-28T18:49:30.993Z,2.80
2023-01-28T18:51:59.660Z,3.07
2023-01-28T18:54:28.411Z,3.40
2023-01-28T18:56:57.025Z,2.80
2023-01-28T18:59:25.825Z,2.70
2023-01-28T19:01:54.522Z,2.57
2023-01-28T19:04:23.277Z,2.80
2023-01-28T19:06:57.061Z,2.80
2023-01-28T19:09:25.902Z,3.10
2023-01-28T19:11:54.486Z,3.03
2023-01-28T19:14:23.103Z,4.27
2023-01-28T19:16:52.136Z,3.90
2023-01-28T19:19:20.733Z,3.33
2023-01-28T19:21:49.385Z,3.37
2023-01-28T19:24:19.507Z,2.80
2023-01-28T19:26:48.258Z,3.10
2023-01-28T19:29:16.942Z,3.63
2023-01-28T19:31:48.881Z,3.03
2023-01-28T19:34:17.883Z,2.70
2023-01-28T19:36:46.901Z,2.60
2023-01-28T19:39:16.295Z,2.90
2023-01-28T19:41:46.592Z,2.87
2023-01-28T19:44:15.191Z,2.80
2023-01-28T19:46:44.134Z,3.03
2023-01-28T19:49:13.183Z,2.77
2023-01-28T19:51:41.827Z,2.20
2023-01-28T19:54:10.495Z,3.00
2023-01-28T19:56:39.244Z,2.87
2023-01-28T19:59:09.293Z,3.30
2023-01-28T20:01:38.500Z,2.97
2023-01-28T20:04:07.227Z,3.00
2023-01-28T20:06:37.106Z,3.13
2023-01-28T20:09:09.110Z,3.23
2023-01-28T20:11:38.197Z,3.30
2023-01-28T20:14:08.231Z,3.30
2023-01-28T20:16:37.516Z,3.80
2023-01-28T20:19:08.692Z,3.53
2023-01-28T20:21:37.727Z,3.10
2023-01-28T20:24:07.677Z,3.43
2023-01-28T20:26:38.648Z,3.10
2023-01-28T20:29:11.301Z,3.43
2023-01-28T20:31:43.010Z,3.23
2023-01-28T20:34:15.932Z,3.50
2023-01-28T20:36:45.179Z,3.40
2023-01-28T20:39:14.581Z,3.70
2023-01-28T20:41:43.381Z,3.40
2023-01-28T20:44:13.498Z,4.10
2023-01-28T20:46:42.125Z,3.20
2023-01-28T20:49:11.017Z,4.13
2023-01-28T20:51:40.108Z,3.97
2023-01-28T20:54:08.866Z,3.90
2023-01-28T20:56:37.514Z,4.30
2023-01-28T20:59:07.610Z,3.73
2023-01-28T21:01:38.592Z,4.23
2023-01-28T21:04:10.543Z,3.93
2023-01-28T21:06:39.921Z,4.27
2023-01-28T21:09:09.287Z,4.30
2023-01-28T21:11:37.895Z,4.60
2023-01-28T21:14:06.548Z,4.27
2023-01-28T21:16:35.829Z,4.17
2023-01-28T21:19:05.910Z,4.07
2023-01-28T21:21:34.629Z,3.77
2023-01-28T21:24:03.427Z,4.10
2023-01-28T21:26:32.116Z,3.60
2023-01-28T21:29:00.768Z,3.80
2023-01-28T21:31:29.452Z,3.57
2023-01-28T21:34:01.212Z,3.40
2023-01-28T21:36:34.525Z,3.67
2023-01-28T21:39:03.617Z,4.47
2023-01-28T21:41:33.213Z,4.40
2023-01-28T21:44:01.805Z,4.00
2023-01-28T21:46:33.480Z,4.20
2023-01-28T21:49:05.374Z,5.27
2023-01-28T21:51:39.605Z,3.93
2023-01-28T21:54:12.910Z,4.50
2023-01-28T21:56:43.379Z,4.70
2023-01-28T21:59:32.551Z,5.00
2023-01-28T22:02:03.322Z,4.70
2023-01-28T22:04:34.709Z,4.60
2023-01-28T22:07:07.146Z,4.60
2023-01-28T22:09:36.077Z,4.27
2023-01-28T22:12:06.950Z,4.83
2023-01-28T22:14:36.032Z,4.53
2023-01-28T22:17:07.301Z,4.83
2023-01-28T22:19:36.002Z,4.20
2023-01-28T22:22:06.939Z,3.90
2023-01-28T22:24:35.654Z,4.27
2023-01-28T22:27:04.280Z,3.93
2023-01-28T22:29:32.914Z,4.47
2023-01-28T22:32:04.231Z,3.93
2023-01-28T22:34:32.946Z,3.83
2023-01-28T22:37:01.547Z,4.20
2023-01-28T22:39:31.618Z,3.93
2023-01-28T22:42:00.295Z,4.37
2023-01-28T22:44:28.912Z,3.70
2023-01-28T22:46:57.546Z,3.50
2023-01-28T22:49:26.802Z,3.50
2023-01-28T22:51:55.428Z,4.00
2023-01-28T22:54:24.022Z,3.50
2023-01-28T22:56:54.009Z,3.60
2023-01-28T22:59:22.653Z,3.70
2023-01-28T23:01:51.314Z,3.50
2023-01-28T23:04:19.941Z,3.97
2023-01-28T23:06:48.555Z,3.77
2023-01-28T23:09:17.202Z,3.53
2023-01-28T23:11:45.817Z,3.60
2023-01-28T23:14:33.250Z,3.83
2023-01-28T23:17:19.219Z,3.63
2023-01-28T23:20:05.222Z,3.67
2023-01-28T23:22:52.816Z,4.10
2023-01-28T23:25:24.481Z,3.90
2023-01-28T23:27:53.139Z,3.90
2023-01-28T23:30:25.276Z,4.10
2023-01-28T23:32:57.496Z,3.83
2023-01-28T23:35:26.995Z,3.67
2023-01-28T23:37:56.624Z,3.83
2023-01-28T23:40:27.252Z,3.70
2023-01-28T23:42:56.806Z,3.50
2023-01-28T23:45:27.027Z,3.50
2023-01-28T23:47:55.701Z,3.80
2023-01-28T23:50:24.328Z,3.73
2023-01-28T23:52:53.011Z,3.53
2023-01-28T23:55:21.607Z,3.80
2023-01-28T23:57:50.233Z,3.33
